sensor_id;sensor_type;location;lat;lon;timestamp;P1;durP1;ratioP1;P2;durP2;ratioP2
76749;SDS011;66447;35.844;14.468;2023-12-20T10:30:07;6.32;;;3.08;;
76749;SDS011;66447;35.844;14.468;2023-12-20T10:45:09;6.20;;;2.85;;
76749;SDS011;66447;35.844;14.468;2023-12-20T11:00:17;5.78;;;2.80;;
76749;SDS011;66447;35.844;14.468;2023-12-20T11:15:19;9.65;;;3.30;;
76749;SDS011;66447;35.844;14.468;2023-12-20T11:30:21;5.65;;;2.22;;
76749;SDS011;66447;35.844;14.468;2023-12-20T11:45:24;7.30;;;2.45;;
76749;SDS011;66447;35.844;14.468;2023-12-20T12:00:27;3.97;;;2.05;;
76749;SDS011;66447;35.844;14.468;2023-12-20T12:15:29;5.20;;;2.13;;
76749;SDS011;66447;35.844;14.468;2023-12-20T12:30:30;7.30;;;2.35;;
76749;SDS011;66447;35.844;14.468;2023-12-20T12:45:31;4.85;;;1.85;;
76749;SDS011;66447;35.844;14.468;2023-12-20T13:00:33;7.28;;;2.38;;
76749;SDS011;66447;35.844;14.468;2023-12-20T13:15:37;7.03;;;2.60;;
76749;SDS011;66447;35.844;14.468;2023-12-20T13:30:38;8.82;;;2.30;;
76749;SDS011;66447;35.844;14.468;2023-12-20T13:45:39;7.70;;;2.72;;
76749;SDS011;66447;35.844;14.468;2023-12-20T14:00:40;9.93;;;2.63;;
76749;SDS011;66447;35.844;14.468;2023-12-20T14:15:41;6.83;;;2.70;;
76749;SDS011;66447;35.844;14.468;2023-12-20T14:30:43;8.63;;;3.00;;
76749;SDS011;66447;35.844;14.468;2023-12-20T14:45:45;9.15;;;3.20;;
76749;SDS011;66447;35.844;14.468;2023-12-20T15:15:51;7.95;;;3.25;;
76749;SDS011;66447;35.844;14.468;2023-12-20T15:30:53;8.18;;;3.13;;
76749;SDS011;66447;35.844;14.468;2023-12-20T15:45:54;6.38;;;3.08;;
76749;SDS011;66447;35.844;14.468;2023-12-20T16:00:56;4.80;;;2.67;;
76749;SDS011;66447;35.844;14.468;2023-12-20T16:16:00;7.20;;;3.17;;
76749;SDS011;66447;35.844;14.468;2023-12-20T16:31:03;5.88;;;3.78;;
76749;SDS011;66447;35.844;14.468;2023-12-20T16:46:05;8.55;;;3.80;;
76749;SDS011;66447;35.844;14.468;2023-12-20T17:01:08;7.97;;;4.43;;
76749;SDS011;66447;35.844;14.468;2023-12-20T17:16:13;9.90;;;3.75;;
76749;SDS011;66447;35.844;14.468;2023-12-20T17:31:14;7.30;;;4.80;;
76749;SDS011;66447;35.844;14.468;2023-12-20T17:46:17;7.55;;;5.10;;
76749;SDS011;66447;35.844;14.468;2023-12-20T18:01:18;11.55;;;4.30;;
76749;SDS011;66447;35.844;14.468;2023-12-20T18:31:21;8.75;;;3.70;;
76749;SDS011;66447;35.844;14.468;2023-12-20T18:46:23;12.52;;;8.45;;
76749;SDS011;66447;35.844;14.468;2023-12-20T19:01:25;6.18;;;4.32;;
76749;SDS011;66447;35.844;14.468;2023-12-20T19:16:26;8.48;;;4.82;;
76749;SDS011;66447;35.844;14.468;2023-12-20T19:31:36;9.02;;;4.20;;
76749;SDS011;66447;35.844;14.468;2023-12-20T19:46:38;13.05;;;4.80;;
76749;SDS011;66447;35.844;14.468;2023-12-20T20:47:52;10.43;;;5.05;;
76749;SDS011;66447;35.844;14.468;2023-12-20T21:02:56;9.45;;;5.57;;
76749;SDS011;66447;35.844;14.468;2023-12-20T21:33:10;10.27;;;5.13;;
76749;SDS011;66447;35.844;14.468;2023-12-20T21:48:14;9.10;;;5.93;;
76749;SDS011;66447;35.844;14.468;2023-12-20T22:03:16;10.90;;;5.72;;
76749;SDS011;66447;35.844;14.468;2023-12-20T22:18:17;12.63;;;6.07;;
76749;SDS011;66447;35.844;14.468;2023-12-20T22:33:19;7.88;;;5.32;;
76749;SDS011;66447;35.844;14.468;2023-12-20T23:03:21;9.60;;;5.63;;
76749;SDS011;66447;35.844;14.468;2023-12-20T23:18:25;10.98;;;5.32;;
76749;SDS011;66447;35.844;14.468;2023-12-20T23:33:26;8.10;;;4.80;;
